createdAt,value
2019-04-20T00:00:04.604Z,3.62
2019-04-20T00:02:35.835Z,3.42
2019-04-20T00:05:09.396Z,3.40
2019-04-20T00:07:43.793Z,3.90
2019-04-20T00:10:20.006Z,3.98
2019-04-20T00:13:06.811Z,3.50
2019-04-20T00:15:26.409Z,3.62
2019-04-20T00:18:03.214Z,3.33
2019-04-20T00:20:36.894Z,3.52
2019-04-20T00:23:13.456Z,3.47
2019-04-20T00:25:54.892Z,3.85
2019-04-20T00:28:40.835Z,3.45
2019-04-20T00:31:13.779Z,4.17
2019-04-20T00:33:45.841Z,3.60
2019-04-20T00:36:05.357Z,3.60
2019-04-20T00:38:42.655Z,3.25
2019-04-20T00:41:17.281Z,3.60
2019-04-20T00:43:49.385Z,3.55
2019-04-20T00:46:31.980Z,3.35
2019-04-20T00:49:06.906Z,3.20
2019-04-20T00:51:51.156Z,3.35
2019-04-20T00:54:07.330Z,3.60
2019-04-20T00:56:41.307Z,3.40
2019-04-20T00:59:27.578Z,3.83
2019-04-20T01:02:10.310Z,3.80
2019-04-20T01:04:50.456Z,3.40
2019-04-20T01:07:13.673Z,3.47
2019-04-20T01:09:54.107Z,3.47
2019-04-20T01:12:30.342Z,3.50
2019-04-20T01:15:06.331Z,3.37
2019-04-20T01:17:37.930Z,3.37
2019-04-20T01:20:12.108Z,3.40
2019-04-20T01:22:53.823Z,3.15
2019-04-20T01:25:28.490Z,4.00
2019-04-20T01:28:14.872Z,3.25
2019-04-20T01:30:36.173Z,3.50
2019-04-20T01:33:16.022Z,3.40
2019-04-20T01:35:53.466Z,3.58
2019-04-20T01:38:30.588Z,3.75
2019-04-20T01:40:48.467Z,3.83
2019-04-20T01:43:22.678Z,3.72
2019-04-20T01:46:07.577Z,3.58
2019-04-20T01:48:35.594Z,3.52
2019-04-20T01:51:11.840Z,3.85
2019-04-20T01:54:06.986Z,3.65
2019-04-20T01:56:39.022Z,3.77
2019-04-20T01:59:23.989Z,3.47
2019-04-20T02:02:09.627Z,3.92
2019-04-20T02:04:43.956Z,3.70
2019-04-20T02:07:19.308Z,3.42
2019-04-20T02:09:56.437Z,4.22
2019-04-20T02:12:29.228Z,4.00
2019-04-20T02:15:02.742Z,3.50
2019-04-20T02:17:41.836Z,3.50
2019-04-20T02:20:28.714Z,4.15
2019-04-20T02:23:00.013Z,4.03
2019-04-20T02:25:18.647Z,4.03
2019-04-20T02:28:01.395Z,4.15
2019-04-20T02:33:42.846Z,3.98
2019-04-20T02:36:21.226Z,4.10
2019-04-20T02:39:13.681Z,4.37
2019-04-20T02:41:39.177Z,4.10
2019-04-20T02:44:16.016Z,4.20
2019-04-20T02:46:45.299Z,4.08
2019-04-20T02:49:19.846Z,4.20
2019-04-20T02:51:59.878Z,4.50
2019-04-20T02:54:18.741Z,5.05
2019-04-20T02:57:07.287Z,5.28
2019-04-20T02:59:53.360Z,4.72
2019-04-20T03:01:57.345Z,4.08
2019-04-20T03:04:20.324Z,4.85
2019-04-20T03:06:58.341Z,4.37
2019-04-20T03:09:40.474Z,4.65
2019-04-20T03:12:21.723Z,4.50
2019-04-20T03:14:42.294Z,5.15
2019-04-20T03:17:27.253Z,5.00
2019-04-20T03:19:51.656Z,4.72
2019-04-20T03:22:48.344Z,4.65
2019-04-20T03:25:11.412Z,4.62
2019-04-20T03:27:45.846Z,4.80
2019-04-20T03:31:16.257Z,4.50
2019-04-20T03:33:44.701Z,4.75
2019-04-20T03:35:51.124Z,4.67
2019-04-20T03:38:21.703Z,4.97
2019-04-20T03:40:45.295Z,5.55
2019-04-20T03:43:07.680Z,5.80
2019-04-20T03:45:50.649Z,4.80
2019-04-20T03:48:33.521Z,5.12
2019-04-20T03:51:22.053Z,4.67
2019-04-20T03:54:02.779Z,4.92
2019-04-20T03:56:42.286Z,4.50
2019-04-20T03:59:36.003Z,4.62
2019-04-20T04:02:33.173Z,4.55
2019-04-20T04:05:04.371Z,4.72
2019-04-20T04:07:30.414Z,4.62
2019-04-20T04:10:10.871Z,4.97
2019-04-20T04:12:35.597Z,4.50
2019-04-20T04:15:04.200Z,4.75
2019-04-20T04:17:42.300Z,4.67
2019-04-20T04:20:16.275Z,4.90
2019-04-20T04:23:06.025Z,5.75
2019-04-20T04:25:32.555Z,4.85
2019-04-20T04:28:10.767Z,4.85
2019-04-20T04:30:49.538Z,4.65
2019-04-20T04:33:48.954Z,5.03
2019-04-20T04:35:57.003Z,4.60
2019-04-20T04:38:38.666Z,4.20
2019-04-20T04:41:17.079Z,4.87
2019-04-20T04:43:48.373Z,4.42
2019-04-20T04:45:59.582Z,4.92
2019-04-20T04:48:37.049Z,4.67
2019-04-20T04:51:15.826Z,4.62
2019-04-20T04:53:52.931Z,4.53
2019-04-20T04:56:20.146Z,16.62
2019-04-20T04:58:51.722Z,4.75
2019-04-20T05:01:28.799Z,4.55
2019-04-20T05:04:34.780Z,4.60
2019-04-20T05:06:48.541Z,4.95
2019-04-20T05:09:12.335Z,4.60
2019-04-20T05:11:44.730Z,4.45
2019-04-20T05:14:24.417Z,4.80
2019-04-20T05:17:07.738Z,4.80
2019-04-20T05:19:47.476Z,3.95
2019-04-20T05:22:26.173Z,4.60
2019-04-20T05:25:02.333Z,4.67
2019-04-20T05:27:34.881Z,4.42
2019-04-20T05:29:50.861Z,4.53
2019-04-20T05:32:35.831Z,4.90
2019-04-20T05:35:21.553Z,4.30
2019-04-20T05:38:02.918Z,4.40
2019-04-20T05:40:26.209Z,4.47
2019-04-20T05:43:07.929Z,4.25
2019-04-20T05:45:33.770Z,4.50
2019-04-20T05:48:11.916Z,4.40
2019-04-20T05:50:51.873Z,4.20
2019-04-20T05:53:26.428Z,4.72
2019-04-20T05:55:54.451Z,4.47
2019-04-20T05:58:33.983Z,4.70
2019-04-20T06:01:16.093Z,4.35
2019-04-20T06:03:42.348Z,4.42
2019-04-20T06:06:15.172Z,4.92
2019-04-20T06:08:59.626Z,4.70
2019-04-20T06:11:28.276Z,4.42
2019-04-20T06:13:53.749Z,4.58
2019-04-20T06:16:41.011Z,4.70
2019-04-20T06:19:24.383Z,5.00
2019-04-20T06:21:57.562Z,4.92
2019-04-20T06:24:35.331Z,4.72
2019-04-20T06:27:03.237Z,4.53
2019-04-20T06:29:38.060Z,4.70
2019-04-20T06:32:14.024Z,4.75
2019-04-20T06:35:05.057Z,4.28
2019-04-20T06:37:20.736Z,4.85
2019-04-20T06:39:54.689Z,4.75
2019-04-20T06:42:34.304Z,4.50
2019-04-20T06:45:04.542Z,4.60
2019-04-20T06:47:39.330Z,4.30
2019-04-20T06:50:16.038Z,4.62
2019-04-20T06:53:16.405Z,4.33
2019-04-20T06:55:48.644Z,4.20
2019-04-20T06:58:33.433Z,4.28
2019-04-20T07:01:00.832Z,4.25
2019-04-20T07:03:49.416Z,4.22
2019-04-20T07:06:23.045Z,4.45
2019-04-20T07:08:48.808Z,4.28
2019-04-20T07:11:21.291Z,4.35
2019-04-20T07:13:36.164Z,4.50
2019-04-20T07:16:28.255Z,4.25
2019-04-20T07:19:07.634Z,4.58
2019-04-20T07:22:07.227Z,3.90
2019-04-20T07:24:38.563Z,4.33
2019-04-20T07:27:03.055Z,4.00
2019-04-20T07:29:41.148Z,4.58
2019-04-20T07:32:01.536Z,4.53
2019-04-20T07:34:47.526Z,4.33
2019-04-20T07:37:51.807Z,4.47
2019-04-20T07:40:03.487Z,4.00
2019-04-20T07:42:34.633Z,4.20
2019-04-20T07:45:07.734Z,4.37
2019-04-20T07:47:46.591Z,4.60
2019-04-20T07:50:07.715Z,4.42
2019-04-20T07:52:38.683Z,4.10
2019-04-20T07:57:51.121Z,4.00
2019-04-20T08:00:44.483Z,4.33
2019-04-20T08:03:23.678Z,4.40
2019-04-20T08:05:52.700Z,4.33
2019-04-20T08:08:35.219Z,4.50
2019-04-20T08:11:07.464Z,4.35
2019-04-20T08:16:24.312Z,4.15
2019-04-20T08:18:53.915Z,8.65
2019-04-20T08:21:32.728Z,4.75
2019-04-20T08:24:02.613Z,4.58
2019-04-20T08:26:25.159Z,4.17
2019-04-20T08:29:01.417Z,3.95
2019-04-20T08:31:43.469Z,4.35
2019-04-20T08:37:00.937Z,7.20
2019-04-20T08:42:10.510Z,6.65
2019-04-20T08:47:35.148Z,4.35
2019-04-20T08:50:03.154Z,4.25
2019-04-20T08:52:55.467Z,3.92
2019-04-20T08:55:04.705Z,4.30
2019-04-20T08:57:22.524Z,5.17
2019-04-20T08:59:56.053Z,4.60
2019-04-20T09:02:30.400Z,7.85
2019-04-20T09:05:09.042Z,5.37
2019-04-20T09:07:50.304Z,4.17
2019-04-20T09:10:34.738Z,5.95
2019-04-20T09:13:02.233Z,12.28
2019-04-20T09:15:21.649Z,9.40
2019-04-20T09:18:01.958Z,4.67
2019-04-20T09:20:46.227Z,4.30
2019-04-20T09:23:28.640Z,4.47
2019-04-20T09:26:17.154Z,4.90
2019-04-20T09:28:31.877Z,4.47
2019-04-20T09:31:18.129Z,4.30
2019-04-20T09:33:58.524Z,5.08
2019-04-20T09:36:42.025Z,4.30
2019-04-20T09:39:27.159Z,4.85
2019-04-20T09:42:09.205Z,4.83
2019-04-20T09:44:46.201Z,5.20
2019-04-20T09:47:25.897Z,4.92
2019-04-20T09:50:00.828Z,4.85
2019-04-20T09:52:39.879Z,4.75
2019-04-20T09:55:14.938Z,5.03
2019-04-20T09:57:54.056Z,4.92
2019-04-20T10:00:25.831Z,4.87
2019-04-20T10:02:44.688Z,4.55
2019-04-20T10:05:17.799Z,4.90
2019-04-20T10:07:55.942Z,5.15
2019-04-20T10:10:32.323Z,4.87
2019-04-20T10:13:00.597Z,4.80
2019-04-20T10:15:35.142Z,5.30
2019-04-20T10:18:08.396Z,5.00
2019-04-20T10:20:42.287Z,5.17
2019-04-20T10:23:16.454Z,5.03
2019-04-20T10:25:50.924Z,5.10
2019-04-20T10:28:25.517Z,5.22
2019-04-20T10:30:58.971Z,4.53
2019-04-20T10:33:33.442Z,4.78
2019-04-20T10:36:09.763Z,5.15
2019-04-20T10:38:42.672Z,4.85
2019-04-20T10:41:29.760Z,4.78
2019-04-20T10:43:51.077Z,4.83
2019-04-20T10:46:25.265Z,4.78
2019-04-20T10:49:02.809Z,4.75
2019-04-20T10:51:33.706Z,5.20
2019-04-20T10:54:06.738Z,4.70
2019-04-20T10:56:41.395Z,4.70
2019-04-20T10:59:15.985Z,4.70
2019-04-20T11:01:49.729Z,5.03
2019-04-20T11:04:22.974Z,4.10
2019-04-20T11:06:56.648Z,4.83
2019-04-20T11:09:30.720Z,4.70
2019-04-20T11:12:04.202Z,4.70
2019-04-20T11:14:41.892Z,4.12
2019-04-20T11:17:12.530Z,4.75
2019-04-20T11:19:45.446Z,4.22
2019-04-20T11:22:19.977Z,4.30
2019-04-20T11:24:54.205Z,4.58
2019-04-20T11:27:28.082Z,4.33
2019-04-20T11:30:02.410Z,4.55
2019-04-20T11:32:36.061Z,4.35
2019-04-20T11:35:20.514Z,4.03
2019-04-20T11:37:44.897Z,4.42
2019-04-20T11:40:19.137Z,4.67
2019-04-20T11:42:53.425Z,4.30
2019-04-20T11:45:28.732Z,4.58
2019-04-20T11:48:03.205Z,4.80
2019-04-20T11:50:37.766Z,4.05
2019-04-20T11:53:11.350Z,3.87
2019-04-20T11:55:44.563Z,3.65
2019-04-20T11:58:17.845Z,3.50
2019-04-20T12:01:01.274Z,4.20
2019-04-20T12:03:33.265Z,3.90
2019-04-20T12:06:04.963Z,4.40
2019-04-20T12:08:40.189Z,4.10
2019-04-20T12:11:24.230Z,4.62
2019-04-20T12:13:46.753Z,3.98
2019-04-20T12:16:21.268Z,3.80
2019-04-20T12:18:54.697Z,3.90
2019-04-20T12:21:28.676Z,4.22
2019-04-20T12:24:02.455Z,4.10
2019-04-20T12:26:36.539Z,4.00
2019-04-20T12:29:10.053Z,4.10
2019-04-20T12:31:51.222Z,4.35
2019-04-20T12:34:18.465Z,4.60
2019-04-20T12:36:51.324Z,3.58
2019-04-20T12:39:24.874Z,3.72
2019-04-20T12:42:02.716Z,3.92
2019-04-20T12:44:33.014Z,4.30
2019-04-20T12:47:07.657Z,4.28
2019-04-20T12:49:41.342Z,4.33
2019-04-20T12:52:14.885Z,4.20
2019-04-20T12:54:48.026Z,3.90
2019-04-20T12:57:22.670Z,3.55
2019-04-20T12:59:57.187Z,4.20
2019-04-20T13:02:31.460Z,3.60
2019-04-20T13:05:04.486Z,3.65
2019-04-20T13:07:42.144Z,3.95
2019-04-20T13:10:13.581Z,4.35
2019-04-20T13:13:04.573Z,3.77
2019-04-20T13:15:38.293Z,3.90
2019-04-20T13:18:13.407Z,4.17
2019-04-20T13:20:46.427Z,4.28
2019-04-20T13:23:20.351Z,3.70
2019-04-20T13:25:54.950Z,3.47
2019-04-20T13:28:28.809Z,4.00
2019-04-20T13:31:02.187Z,3.95
2019-04-20T13:33:35.313Z,3.70
2019-04-20T13:36:08.191Z,3.75
2019-04-20T13:38:41.738Z,3.72
2019-04-20T13:41:15.772Z,3.83
2019-04-20T13:43:50.217Z,4.00
2019-04-20T13:46:24.821Z,3.77
2019-04-20T13:48:58.066Z,4.00
2019-04-20T13:51:32.752Z,3.50
2019-04-20T13:54:13.237Z,3.67
2019-04-20T13:56:41.786Z,3.92
2019-04-20T13:59:26.670Z,4.20
2019-04-20T14:02:15.002Z,4.05
2019-04-20T14:04:53.172Z,4.00
2019-04-20T14:07:27.042Z,3.62
2019-04-20T14:10:01.750Z,3.60
2019-04-20T14:12:39.018Z,3.50
2019-04-20T14:15:11.178Z,3.95
2019-04-20T14:17:44.245Z,3.40
2019-04-20T14:20:20.177Z,3.70
2019-04-20T14:22:52.480Z,3.50
2019-04-20T14:25:27.056Z,3.52
2019-04-20T14:28:00.840Z,3.67
2019-04-20T14:30:34.914Z,3.80
2019-04-20T14:33:08.591Z,3.62
2019-04-20T14:35:42.953Z,3.47
2019-04-20T14:38:17.636Z,3.58
2019-04-20T14:40:52.571Z,3.67
2019-04-20T14:43:26.777Z,3.50
2019-04-20T14:46:00.858Z,3.58
2019-04-20T14:48:34.853Z,3.45
2019-04-20T14:51:08.193Z,3.70
2019-04-20T14:53:43.287Z,3.60
2019-04-20T14:56:17.718Z,3.22
2019-04-20T14:58:59.732Z,3.60
2019-04-20T15:01:34.772Z,3.33
2019-04-20T15:04:14.539Z,3.55
2019-04-20T15:06:42.594Z,3.80
2019-04-20T15:09:16.831Z,3.30
2019-04-20T15:11:50.719Z,3.60
2019-04-20T15:14:24.839Z,3.60
2019-04-20T15:16:58.507Z,3.42
2019-04-20T15:19:33.655Z,3.65
2019-04-20T15:22:09.431Z,3.43
2019-04-20T15:24:42.705Z,2.50
2019-04-20T15:27:16.298Z,3.52
2019-04-20T15:29:50.475Z,3.42
2019-04-20T15:32:25.012Z,3.80
2019-04-20T15:34:58.673Z,3.60
2019-04-20T15:37:32.980Z,3.25
2019-04-20T15:40:06.465Z,3.80
2019-04-20T15:42:51.495Z,3.77
2019-04-20T15:45:15.681Z,3.75
2019-04-20T15:47:50.101Z,3.65
2019-04-20T15:50:23.968Z,3.50
2019-04-20T15:52:58.759Z,3.55
2019-04-20T15:55:37.395Z,3.33
2019-04-20T15:58:06.733Z,3.60
2019-04-20T16:00:40.592Z,4.53
2019-04-20T16:03:19.144Z,4.50
2019-04-20T16:05:53.726Z,4.47
2019-04-20T16:08:26.406Z,4.22
2019-04-20T16:10:59.435Z,4.72
2019-04-20T16:13:38.082Z,4.10
2019-04-20T16:16:07.911Z,4.75
2019-04-20T16:18:43.078Z,4.72
2019-04-20T16:21:21.894Z,4.60
2019-04-20T16:23:55.168Z,4.37
2019-04-20T16:26:35.567Z,4.83
2019-04-20T16:29:08.845Z,5.00
2019-04-20T16:31:44.088Z,5.20
2019-04-20T16:34:16.733Z,4.42
2019-04-20T16:36:52.993Z,5.20
2019-04-20T16:39:25.408Z,4.70
2019-04-20T16:41:58.373Z,5.40
2019-04-20T16:44:31.447Z,4.87
2019-04-20T16:47:05.908Z,4.60
2019-04-20T16:49:41.202Z,5.08
2019-04-20T16:52:14.900Z,4.80
2019-04-20T16:54:48.029Z,5.10
2019-04-20T16:57:21.497Z,4.85
2019-04-20T16:59:57.778Z,5.22
2019-04-20T17:02:29.943Z,5.20
2019-04-20T17:05:03.201Z,5.28
2019-04-20T17:07:44.873Z,5.08
2019-04-20T17:10:18.326Z,5.40
2019-04-20T17:12:51.464Z,5.28
2019-04-20T17:15:25.533Z,5.47
2019-04-20T17:17:59.019Z,5.20
2019-04-20T17:20:32.711Z,5.00
2019-04-20T17:23:08.699Z,5.33
2019-04-20T17:25:41.901Z,5.50
2019-04-20T17:28:33.146Z,4.85
2019-04-20T17:31:09.133Z,4.90
2019-04-20T17:33:55.335Z,5.50
2019-04-20T17:36:25.264Z,5.25
2019-04-20T17:38:57.717Z,5.33
2019-04-20T17:41:52.951Z,5.58
2019-04-20T17:44:19.861Z,5.10
2019-04-20T17:46:47.656Z,5.28
2019-04-20T17:49:26.946Z,6.33
2019-04-20T17:52:12.201Z,6.08
2019-04-20T17:54:23.272Z,6.42
2019-04-20T17:56:56.266Z,6.58
2019-04-20T17:59:30.397Z,7.03
2019-04-20T18:02:19.060Z,7.45
2019-04-20T18:05:14.220Z,7.70
2019-04-20T18:07:48.154Z,7.47
2019-04-20T18:10:19.986Z,7.78
2019-04-20T18:12:42.277Z,8.95
2019-04-20T18:15:29.444Z,10.55
2019-04-20T18:18:13.459Z,10.80
2019-04-20T18:20:44.944Z,12.15
2019-04-20T18:23:25.530Z,9.73
2019-04-20T18:26:15.900Z,10.45
2019-04-20T18:28:54.424Z,10.72
2019-04-20T18:31:11.202Z,10.18
2019-04-20T18:33:44.847Z,11.00
2019-04-20T18:36:23.686Z,12.07
2019-04-20T18:38:58.620Z,11.85
2019-04-20T18:41:38.409Z,10.75
2019-04-20T18:44:04.489Z,10.08
2019-04-20T18:47:00.698Z,9.70
2019-04-20T18:49:28.218Z,10.30
2019-04-20T18:51:48.112Z,12.50
2019-04-20T18:54:25.763Z,17.62
2019-04-20T18:56:58.413Z,20.40
2019-04-20T18:59:40.076Z,21.30
2019-04-20T19:02:13.805Z,20.88
2019-04-20T19:04:43.858Z,19.37
2019-04-20T19:07:17.538Z,12.78
2019-04-20T19:09:55.210Z,16.77
2019-04-20T19:12:34.486Z,14.38
2019-04-20T19:15:28.186Z,13.98
2019-04-20T19:17:59.004Z,12.00
2019-04-20T19:20:28.738Z,10.23
2019-04-20T19:23:00.385Z,9.75
2019-04-20T19:25:37.447Z,9.50
2019-04-20T19:28:08.832Z,10.58
2019-04-20T19:30:49.958Z,10.50
2019-04-20T19:33:30.984Z,10.70
2019-04-20T19:36:09.299Z,11.20
2019-04-20T19:38:41.825Z,12.53
2019-04-20T19:41:21.405Z,14.03
2019-04-20T19:43:49.969Z,13.60
2019-04-20T19:48:55.916Z,13.25
2019-04-20T19:51:43.074Z,12.05
2019-04-20T19:54:17.932Z,13.30
2019-04-20T19:56:46.707Z,12.75
2019-04-20T19:59:17.461Z,11.85
2019-04-20T20:01:40.185Z,10.65
2019-04-20T20:04:13.723Z,10.38
2019-04-20T20:06:51.887Z,10.43
2019-04-20T20:09:21.937Z,9.40
2019-04-20T20:11:57.256Z,9.33
2019-04-20T20:14:36.500Z,8.90
2019-04-20T20:17:26.921Z,8.63
2019-04-20T20:20:06.974Z,9.25
2019-04-20T20:22:26.732Z,9.00
2019-04-20T20:24:49.362Z,9.05
2019-04-20T20:27:31.407Z,9.00
2019-04-20T20:30:07.017Z,8.88
2019-04-20T20:32:49.282Z,9.18
2019-04-20T20:35:15.395Z,8.80
2019-04-20T20:37:47.976Z,9.58
2019-04-20T20:40:23.306Z,9.33
2019-04-20T20:43:06.147Z,8.75
2019-04-20T20:45:36.127Z,9.20
2019-04-20T20:48:15.856Z,8.75
2019-04-20T20:50:53.275Z,9.73
2019-04-20T20:53:16.329Z,9.20
2019-04-20T20:55:47.971Z,9.25
2019-04-20T20:58:32.545Z,8.98
2019-04-20T21:00:57.571Z,9.38
2019-04-20T21:03:34.630Z,8.43
2019-04-20T21:06:03.317Z,8.48
2019-04-20T21:08:42.845Z,8.40
2019-04-20T21:11:19.792Z,9.10
2019-04-20T21:13:48.743Z,8.35
2019-04-20T21:16:27.652Z,8.13
2019-04-20T21:19:15.858Z,8.05
2019-04-20T21:21:42.531Z,8.43
2019-04-20T21:24:14.532Z,8.45
2019-04-20T21:26:45.926Z,8.30
2019-04-20T21:29:20.488Z,8.55
2019-04-20T21:32:01.831Z,8.03
2019-04-20T21:34:29.121Z,8.40
2019-04-20T21:37:11.621Z,8.63
2019-04-20T21:39:44.056Z,8.00
2019-04-20T21:42:16.110Z,8.23
2019-04-20T21:44:50.074Z,8.25
2019-04-20T21:47:27.309Z,7.90
2019-04-20T21:50:15.364Z,7.58
2019-04-20T21:52:38.757Z,7.87
2019-04-20T21:55:05.873Z,7.92
2019-04-20T21:57:44.708Z,7.97
2019-04-20T22:00:25.174Z,7.35
2019-04-20T22:02:56.257Z,7.17
2019-04-20T22:05:25.289Z,7.08
2019-04-20T22:08:03.324Z,7.40
2019-04-20T22:10:34.339Z,6.72
2019-04-20T22:13:09.936Z,6.75
2019-04-20T22:15:51.830Z,6.45
2019-04-20T22:18:21.512Z,6.95
2019-04-20T22:21:04.634Z,6.25
2019-04-20T22:23:43.279Z,6.33
2019-04-20T22:26:14.230Z,6.45
2019-04-20T22:28:38.157Z,6.37
2019-04-20T22:31:12.030Z,5.65
2019-04-20T22:33:47.297Z,6.45
2019-04-20T22:36:24.045Z,5.90
2019-04-20T22:39:09.673Z,5.60
2019-04-20T22:41:52.427Z,5.47
2019-04-20T22:44:22.442Z,6.53
2019-04-20T22:46:54.337Z,8.28
2019-04-20T22:49:44.089Z,6.80
2019-04-20T22:52:18.114Z,6.72
2019-04-20T22:54:54.310Z,8.00
2019-04-20T22:57:30.265Z,7.75
2019-04-20T22:59:58.322Z,6.92
2019-04-20T23:02:24.507Z,6.65
2019-04-20T23:04:57.169Z,6.55
2019-04-20T23:07:30.728Z,6.28
2019-04-20T23:10:05.422Z,6.20
2019-04-20T23:12:40.050Z,6.17
2019-04-20T23:15:14.414Z,5.87
2019-04-20T23:17:50.438Z,5.65
2019-04-20T23:20:27.663Z,5.05
2019-04-20T23:22:56.921Z,5.90
2019-04-20T23:25:31.274Z,5.00
2019-04-20T23:28:10.119Z,4.95
2019-04-20T23:30:41.985Z,4.87
2019-04-20T23:33:14.018Z,5.03
2019-04-20T23:35:54.168Z,4.70
2019-04-20T23:38:24.579Z,5.22
2019-04-20T23:40:55.974Z,5.90
2019-04-20T23:43:35.866Z,5.25
2019-04-20T23:46:19.605Z,5.53
2019-04-20T23:49:13.538Z,5.30
2019-04-20T23:52:05.699Z,5.22
2019-04-20T23:54:22.119Z,5.28
2019-04-20T23:56:50.083Z,5.20
2019-04-20T23:59:30.408Z,5.10
